Time;durP1;ratioP1;P1;durP2;ratioP2;P2;SDS_P1;SDS_P2;PMS_P1;PMS_P2;Temp;Humidity;BMP_temperature;BMP_pressure;BME280_temperature;BME280_humidity;BME280_pressure;Samples;Min_cycle;Max_cycle;Signal;HPM_P1;HPM_P2
2023/02/03 00:00:35;;;;;;;22.17;9.32;;;;;;;7.93;57.29;100420.38;5014266;28;20032;-48
2023/02/03 00:03:01;;;;;;;21.42;8.13;;;;;;;7.87;57.96;100423.53;5031909;28;20022;-48
2023/02/03 00:05:28;;;;;;;21.95;10.07;;;;;;;7.88;57.83;100419.97;5032141;28;20055;-49
2023/02/03 00:07:53;;;;;;;20.10;8.10;;;;;;;7.68;57.97;100432.22;5014125;28;20014;-48
2023/02/03 00:10:20;;;;;;;21.15;7.75;;;;;;;7.59;58.14;100423.44;5031839;28;20104;-48
2023/02/03 00:12:51;;;;;;;24.98;9.07;;;;;;;7.51;58.77;100434.56;5031819;28;20060;-48
2023/02/03 00:15:18;;;;;;;22.50;7.72;;;;;;;7.69;59.24;100429.47;5031801;28;20025;-48
2023/02/03 00:17:43;;;;;;;19.48;8.60;;;;;;;7.97;58.81;100426.97;5014034;28;20091;-48
2023/02/03 00:20:10;;;;;;;14.90;7.75;;;;;;;7.97;58.46;100424.34;5014032;28;20017;-48
2023/02/03 00:22:36;;;;;;;15.73;7.22;;;;;;;7.96;58.11;100422.69;5014093;28;20026;-48
2023/02/03 00:25:02;;;;;;;17.67;7.63;;;;;;;7.77;58.00;100423.56;5013966;28;20446;-48
2023/02/03 00:27:27;;;;;;;16.75;7.53;;;;;;;7.61;58.70;100426.72;5013932;28;20026;-48
2023/02/03 00:29:53;;;;;;;24.85;8.50;;;;;;;7.45;59.58;100426.47;5031754;28;20025;-48
2023/02/03 00:32:18;;;;;;;16.50;8.70;;;;;;;7.26;59.87;100430.69;5031620;28;20387;-48
2023/02/03 00:34:44;;;;;;;20.17;7.55;;;;;;;7.32;60.50;100419.69;5031609;28;20033;-49
2023/02/03 00:37:11;;;;;;;17.23;7.10;;;;;;;7.53;61.39;100418.75;5013839;28;20080;-48
2023/02/03 00:39:37;;;;;;;14.30;7.60;;;;;;;7.78;60.63;100412.13;5034737;28;20025;-48
2023/02/03 00:42:04;;;;;;;15.82;7.55;;;;;;;7.83;59.66;100409.94;5035800;28;20032;-48
2023/02/03 00:44:30;;;;;;;20.02;8.07;;;;;;;7.86;59.95;100403.59;5017789;28;20030;-48
2023/02/03 00:46:56;;;;;;;19.25;7.82;;;;;;;7.87;59.59;100415.69;5017686;28;20030;-49
2023/02/03 00:49:22;;;;;;;70.75;44.22;;;;;;;7.80;58.86;100408.41;5017641;28;20029;-49
2023/02/03 00:51:47;;;;;;;26.92;16.45;;;;;;;7.63;59.11;100413.53;5017700;28;20025;-48
2023/02/03 00:54:13;;;;;;;32.17;17.33;;;;;;;7.57;60.40;100407.88;5035362;28;20029;-48
2023/02/03 00:56:39;;;;;;;21.35;10.73;;;;;;;7.62;60.24;100415.31;5035156;28;20046;-49
2023/02/03 00:59:05;;;;;;;14.73;7.25;;;;;;;7.66;60.57;100413.25;5035305;28;20032;-49
2023/02/03 01:01:32;;;;;;;23.33;12.07;;;;;;;7.81;60.05;100404.03;5035458;28;20025;-49
2023/02/03 01:03:58;;;;;;;27.00;8.57;;;;;;;7.94;60.22;100414.16;5017422;28;20071;-49
2023/02/03 01:06:25;;;;;;;24.42;9.85;;;;;;;8.11;59.40;100405.59;5035377;28;20422;-48
2023/02/03 01:08:50;;;;;;;21.83;8.52;;;;;;;7.89;59.17;100401.53;5035116;28;20033;-48
2023/02/03 01:11:19;;;;;;;18.20;8.40;;;;;;;7.64;60.43;100405.53;5017270;28;20026;-48
2023/02/03 01:13:44;;;;;;;15.43;7.82;;;;;;;7.68;60.27;100406.91;5035042;28;20013;-48
2023/02/03 01:16:13;;;;;;;13.55;7.32;;;;;;;7.84;60.93;100406.34;5017168;28;20033;-48
2023/02/03 01:18:39;;;;;;;21.15;7.30;;;;;;;7.98;60.29;100407.69;5034987;28;20035;-48
2023/02/03 01:21:10;;;;;;;15.48;6.45;;;;;;;7.94;60.79;100404.53;5034863;28;20017;-48
2023/02/03 01:23:36;;;;;;;22.27;8.52;;;;;;;7.90;60.66;100412.81;5017178;28;20048;-48
2023/02/03 01:26:10;;;;;;;18.70;6.18;;;;;;;7.98;61.07;100405.91;5034790;28;20026;-48
2023/02/03 01:28:36;;;;;;;16.23;6.95;;;;;;;8.36;61.28;100405.94;5034806;28;20029;-48
2023/02/03 01:31:14;;;;;;;19.65;6.28;;;;;;;8.80;61.02;100409.63;5034690;28;20026;-48
2023/02/03 01:33:40;;;;;;;20.17;7.53;;;;;;;9.04;60.48;100416.09;5034759;28;20040;-49
2023/02/03 01:36:09;;;;;;;18.42;7.22;;;;;;;9.27;59.38;100411.25;5016843;28;20487;-48
2023/02/03 01:38:36;;;;;;;12.95;7.68;;;;;;;9.29;58.18;100411.94;5034856;28;20021;-49
2023/02/03 01:41:03;;;;;;;19.38;6.82;;;;;;;9.27;57.64;100406.00;5034466;28;20108;-48
2023/02/03 01:43:34;;;;;;;16.83;6.15;;;;;;;9.26;58.00;100406.19;5034472;28;20071;-48
2023/02/03 01:46:04;;;;;;;13.95;7.05;;;;;;;9.29;57.82;100411.94;5016650;28;20120;-48
2023/02/03 01:48:31;;;;;;;14.25;6.25;;;;;;;9.25;57.61;100405.34;5034704;28;20064;-48
2023/02/03 01:51:01;;;;;;;11.43;6.85;;;;;;;9.24;57.91;100402.88;5015966;28;20033;-48
2023/02/03 01:53:27;;;;;;;20.27;11.05;;;;;;;9.19;57.42;100398.06;5034286;28;20059;-49
2023/02/03 01:55:52;;;;;;;13.95;6.97;;;;;;;8.95;58.22;100402.13;5034023;28;20073;-49
2023/02/03 01:58:31;;;;;;;19.30;6.95;;;;;;;8.93;58.97;100400.59;5034236;28;20029;-48
2023/02/03 02:00:57;;;;;;;21.58;6.20;;;;;;;9.02;59.02;100397.09;5016431;28;20527;-48
2023/02/03 02:03:32;;;;;;;16.30;6.30;;;;;;;9.14;58.94;100401.16;5034056;28;20083;-48
2023/02/03 02:06:07;;;;;;;16.60;6.20;;;;;;;9.25;59.22;100400.09;5034161;28;20527;-49
2023/02/03 02:08:33;;;;;;;;;;;;;;;9.42;58.78;100401.09;5016655;28;20029;-48
2023/02/03 02:10:59;;;;;;;;;;;;;;;9.49;58.35;100396.88;5034441;28;19924;-48
2023/02/03 02:13:26;;;;;;;15.93;6.80;;;;;;;9.45;58.16;100399.97;5034045;28;20294;-48
2023/02/03 02:16:11;;;;;;;15.23;5.68;;;;;;;9.48;58.88;100400.50;5033867;28;20025;-48
2023/02/03 02:18:42;;;;;;;15.90;7.00;;;;;;;9.57;58.22;100404.00;5033823;28;20021;-48
2023/02/03 02:21:29;;;;;;;18.05;5.57;;;;;;;9.68;57.94;100406.38;5033771;28;20083;-48
2023/02/03 02:24:19;;;;;;;16.98;5.70;;;;;;;9.72;57.28;100404.28;5033798;28;20036;-48
2023/02/03 02:26:52;;;;;;;15.10;6.25;;;;;;;9.65;57.22;100409.28;5033603;28;20041;-48
2023/02/03 02:29:26;;;;;;;10.98;5.47;;;;;;;9.56;56.80;100397.94;5015820;28;20495;-48
2023/02/03 02:32:22;;;;;;;12.73;6.20;;;;;;;9.49;56.94;100398.69;5033613;28;20056;-48
2023/02/03 02:35:06;;;;;;;11.87;5.33;;;;;;;9.39;56.52;100394.31;5033658;28;20123;-48
2023/02/03 02:38:13;;;;;;;18.58;6.07;;;;;;;9.24;57.36;100397.66;5033478;28;20025;-48
2023/02/03 02:41:12;;;;;;;18.33;7.03;;;;;;;9.17;57.29;100400.03;5022681;28;20093;-49
2023/02/03 02:43:48;;;;;;;17.38;6.45;;;;;;;8.90;56.79;100396.47;5015611;28;20115;-49
2023/02/03 02:46:20;;;;;;;12.88;6.85;;;;;;;8.75;57.95;100397.94;5033356;28;20036;-49
2023/02/03 02:48:56;;;;;;;14.68;6.22;;;;;;;8.75;57.60;100397.94;5033289;28;20028;-49
2023/02/03 02:51:23;;;;;;;15.93;6.22;;;;;;;8.68;58.04;100399.50;5015400;28;20018;-49
2023/02/03 02:53:54;;;;;;;13.48;6.28;;;;;;;8.71;58.44;100401.81;5015343;28;20119;-48
2023/02/03 02:56:22;;;;;;;17.10;6.55;;;;;;;8.93;58.61;100403.22;5032926;28;20454;-49
2023/02/03 02:58:50;;;;;;;12.75;6.72;;;;;;;8.94;58.50;100413.53;5033062;28;20449;-49
2023/02/03 03:01:17;;;;;;;21.48;6.50;;;;;;;8.95;58.27;100411.75;5032458;28;20116;-48
2023/02/03 03:03:44;;;;;;;15.63;6.72;;;;;;;8.99;58.35;100413.09;5032518;28;20076;-48
2023/02/03 03:06:27;;;;;;;16.77;6.68;;;;;;;8.93;58.19;100406.69;5015086;28;20040;-49
2023/02/03 03:09:08;;;;;;;19.60;6.82;;;;;;;8.92;58.13;100409.44;4998766;28;20029;-48
2023/02/03 03:11:42;;;;;;;14.57;6.93;;;;;;;8.94;58.56;100408.31;5032908;28;20030;-48
2023/02/03 03:14:11;;;;;;;15.95;6.07;;;;;;;9.10;58.84;100399.81;5015172;28;20384;-49
2023/02/03 03:16:40;;;;;;;34.58;6.70;;;;;;;9.38;57.83;100402.38;5032701;28;20070;-48
2023/02/03 03:19:11;;;;;;;30.10;6.55;;;;;;;9.38;57.76;100400.56;5032657;28;20529;-48
2023/02/03 03:21:42;;;;;;;40.22;7.72;;;;;;;9.39;57.30;100404.00;5032735;28;20032;-48
2023/02/03 03:24:19;;;;;;;;;;;;;;;9.31;57.55;100402.13;5110195;27;20376;-47
2023/02/03 03:26:56;;;;;;;44.55;7.65;;;;;;;9.32;57.92;100406.41;5109708;28;20308;-47
2023/02/03 03:29:39;;;;;;;45.15;7.47;;;;;;;9.17;57.97;100410.50;5109738;28;20032;-49
2023/02/03 03:32:05;;;;;;;21.40;7.05;;;;;;;9.15;58.15;100412.44;5109581;28;20374;-49
2023/02/03 03:34:32;;;;;;;26.63;6.93;;;;;;;9.15;58.00;100413.25;5109583;28;20122;-49
2023/02/03 03:37:09;;;;;;;18.10;5.97;;;;;;;9.26;58.68;100416.66;5109456;28;20137;-49
2023/02/03 03:39:47;;;;;;;18.40;5.47;;;;;;;9.32;56.94;100413.44;5109386;28;20016;-49
2023/02/03 03:42:15;;;;;;;32.15;6.38;;;;;;;9.26;57.79;100408.81;5109346;28;20023;-49
2023/02/03 03:44:56;;;;;;;20.85;6.78;;;;;;;9.47;58.17;100409.31;5108018;28;20127;-49
2023/02/03 03:47:39;;;;;;;20.17;5.80;;;;;;;9.71;57.59;100416.56;5109353;28;20016;-50
2023/02/03 03:50:09;;;;;;;25.95;6.80;;;;;;;9.72;57.27;100412.97;5107959;28;20581;-49
2023/02/03 03:52:36;;;;;;;16.00;6.13;;;;;;;9.73;56.86;100406.75;5107896;28;20031;-49
2023/02/03 03:55:09;;;;;;;15.95;5.10;;;;;;;9.53;56.31;100407.88;5109024;28;20043;-50
2023/02/03 03:57:41;;;;;;;17.05;7.45;;;;;;;9.35;56.63;100413.94;5109115;28;20049;-50
2023/02/03 04:00:11;;;;;;;18.73;7.45;;;;;;;9.18;57.12;100404.31;5108983;28;20115;-49
2023/02/03 04:02:39;;;;;;;21.52;7.18;;;;;;;9.06;57.49;100408.13;5107641;28;20028;-49
2023/02/03 04:05:06;;;;;;;15.77;6.72;;;;;;;9.02;57.49;100412.81;5108908;28;20020;-49
2023/02/03 04:07:44;;;;;;;17.73;7.30;;;;;;;8.92;57.42;100409.44;5107645;28;20012;-50
2023/02/03 04:10:34;;;;;;;20.98;8.25;;;;;;;8.49;58.00;100403.00;5107473;28;20024;-50
2023/02/03 04:13:02;;;;;;;20.23;6.32;;;;;;;8.12;59.01;100403.81;5108866;28;20028;-49
2023/02/03 04:15:28;;;;;;;16.33;7.20;;;;;;;8.04;59.37;100412.34;5108764;28;20455;-49
2023/02/03 04:17:55;;;;;;;24.75;5.38;;;;;;;8.04;59.79;100401.91;5108716;28;20016;-49
2023/02/03 04:20:22;;;;;;;15.35;5.35;;;;;;;8.14;59.92;100407.09;5108617;28;20028;-50
2023/02/03 04:22:47;;;;;;;19.38;7.32;;;;;;;8.05;59.79;100397.47;5108260;28;20046;-50
2023/02/03 04:25:13;;;;;;;20.40;6.43;;;;;;;7.99;59.63;100398.91;5108533;28;20416;-49
2023/02/03 04:27:38;;;;;;;15.13;5.88;;;;;;;7.86;59.92;100409.63;5107511;28;20020;-49
2023/02/03 04:30:05;;;;;;;18.25;5.97;;;;;;;7.81;60.12;100409.25;5107153;28;20088;-49
2023/02/03 04:32:31;;;;;;;20.95;5.80;;;;;;;7.78;60.28;100412.13;5108644;28;20037;-49
2023/02/03 04:34:57;;;;;;;23.50;5.68;;;;;;;7.94;61.41;100404.53;5098584;28;20238;-49
2023/02/03 04:37:25;;;;;;;23.77;6.75;;;;;;;8.21;60.43;100405.59;5095052;28;20561;-49
2023/02/03 04:39:57;;;;;;;14.80;6.18;;;;;;;8.09;60.03;100402.31;5094727;28;20099;-49
2023/02/03 04:42:23;;;;;;;16.42;7.10;;;;;;;7.71;60.30;100411.06;5093371;28;20036;-49
2023/02/03 04:44:49;;;;;;;14.73;6.13;;;;;;;7.34;60.12;100416.94;5094621;28;20058;-49
2023/02/03 04:47:15;;;;;;;17.67;7.47;;;;;;;6.96;61.01;100415.94;5093235;28;20063;-49
2023/02/03 04:49:41;;;;;;;17.58;6.72;;;;;;;6.80;62.34;100408.59;5094815;28;20051;-49
2023/02/03 04:52:07;;;;;;;14.75;7.00;;;;;;;6.64;62.39;100410.88;5094468;28;20032;-49
2023/02/03 04:54:33;;;;;;;16.45;5.88;;;;;;;6.50;63.40;100410.31;5093180;28;20401;-49
2023/02/03 04:56:59;;;;;;;19.10;6.25;;;;;;;6.30;62.70;100403.34;5093076;28;20121;-49
2023/02/03 04:59:24;;;;;;;13.90;6.10;;;;;;;6.20;64.16;100404.13;5094402;28;20032;-49
2023/02/03 05:01:50;;;;;;;16.48;5.80;;;;;;;6.02;64.12;100391.81;5094283;28;20130;-49
2023/02/03 05:04:15;;;;;;;17.60;8.10;;;;;;;5.86;64.23;100384.44;5094308;28;20044;-49
2023/02/03 05:06:41;;;;;;;14.43;7.43;;;;;;;5.55;66.00;100386.94;5094268;28;20512;-49
2023/02/03 05:09:06;;;;;;;21.10;8.23;;;;;;;5.37;66.59;100381.47;5094232;28;20030;-49
2023/02/03 05:11:32;;;;;;;17.83;6.68;;;;;;;5.24;67.02;100383.41;5094214;28;20024;-49
2023/02/03 05:13:58;;;;;;;12.35;7.80;;;;;;;5.16;67.73;100384.03;5092744;28;20035;-49
2023/02/03 05:16:24;;;;;;;21.92;7.28;;;;;;;4.99;68.24;100378.41;5092735;28;20020;-49
2023/02/03 05:18:50;;;;;;;16.02;7.18;;;;;;;4.98;67.68;100378.53;5093948;28;20059;-49
2023/02/03 05:21:15;;;;;;;18.80;8.38;;;;;;;4.95;68.11;100366.59;5092709;28;20024;-49
2023/02/03 05:23:41;;;;;;;18.08;7.80;;;;;;;4.75;68.52;100359.56;5093629;28;20515;-49
2023/02/03 05:26:06;;;;;;;21.73;8.20;;;;;;;4.45;69.22;100365.34;5092486;28;20449;-49
2023/02/03 05:28:32;;;;;;;17.77;7.80;;;;;;;4.30;70.22;100362.19;5093778;28;20081;-49
2023/02/03 05:30:59;;;;;;;20.00;7.65;;;;;;;4.09;70.39;100362.88;5093764;28;20012;-49
2023/02/03 05:33:25;;;;;;;17.27;7.63;;;;;;;3.97;71.99;100361.22;5093713;28;20028;-49
2023/02/03 05:35:50;;;;;;;13.07;6.40;;;;;;;4.01;71.11;100362.66;5093596;28;20028;-49
2023/02/03 05:38:16;;;;;;;25.38;7.85;;;;;;;4.24;71.58;100349.66;5093627;28;20160;-49
2023/02/03 05:43:27;;;;;;;27.40;10.30;;;;;;;4.71;70.58;100350.31;5093476;28;20062;-49
2023/02/03 05:45:53;;;;;;;26.27;9.50;;;;;;;4.67;69.90;100361.91;5091099;28;20024;-49
2023/02/03 05:48:19;;;;;;;26.27;9.10;;;;;;;4.35;69.83;100360.06;5093376;28;20038;-49
2023/02/03 05:50:45;;;;;;;23.08;9.88;;;;;;;4.12;71.17;100360.03;5092027;28;20042;-49
2023/02/03 05:53:10;;;;;;;18.73;8.00;;;;;;;3.96;71.53;100367.34;5093296;28;20070;-49
2023/02/03 05:55:36;;;;;;;14.80;7.55;;;;;;;3.99;71.72;100370.56;5093236;28;20025;-49
2023/02/03 05:58:03;;;;;;;22.15;9.00;;;;;;;3.98;71.70;100365.47;5093136;28;20111;-49
2023/02/03 06:00:29;;;;;;;21.27;8.55;;;;;;;3.83;71.94;100370.06;5093461;28;20028;-49
2023/02/03 06:02:58;;;;;;;22.30;9.02;;;;;;;3.80;72.34;100363.34;5091688;28;20032;-49
2023/02/03 06:05:24;;;;;;;25.50;11.38;;;;;;;3.73;71.87;100367.31;5091720;28;20020;-49
2023/02/03 06:07:50;;;;;;;29.05;9.73;;;;;;;3.56;72.28;100363.38;5093325;28;20144;-49
2023/02/03 06:10:16;;;;;;;17.35;8.88;;;;;;;3.50;72.92;100373.38;5091615;28;20016;-48
2023/02/03 06:12:42;;;;;;;22.73;9.70;;;;;;;3.40;73.39;100371.47;5093213;28;20499;-49
2023/02/03 06:15:09;;;;;;;38.88;9.98;;;;;;;3.40;73.60;100371.47;5091549;28;20051;-49
2023/02/03 06:17:35;;;;;;;23.27;8.73;;;;;;;3.31;73.64;100372.13;5092860;28;20028;-49
2023/02/03 06:20:05;;;;;;;18.58;8.68;;;;;;;3.18;73.06;100372.22;5091588;28;20023;-49
2023/02/03 06:22:30;;;;;;;17.25;7.72;;;;;;;3.05;73.28;100365.41;5074846;28;20523;-49
2023/02/03 06:24:56;;;;;;;17.10;8.32;;;;;;;3.02;73.40;100379.44;5092787;28;20066;-48
2023/02/03 06:27:22;;;;;;;20.52;8.50;;;;;;;3.13;73.92;100383.84;5092645;28;20027;-49
2023/02/03 06:29:47;;;;;;;22.67;7.55;;;;;;;3.38;73.35;100377.69;5074372;28;20032;-49
2023/02/03 06:32:13;;;;;;;23.20;8.45;;;;;;;3.57;73.21;100384.97;5092624;28;20074;-49
2023/02/03 06:34:39;;;;;;;19.83;7.05;;;;;;;3.71;72.92;100384.78;5092527;28;20028;-49
2023/02/03 06:37:04;;;;;;;34.28;14.10;;;;;;;3.80;72.56;100389.28;5092419;28;20119;-49
2023/02/03 06:39:30;;;;;;;24.73;9.35;;;;;;;3.99;72.06;100387.91;5092483;28;20030;-49
2023/02/03 06:41:55;;;;;;;23.08;9.70;;;;;;;4.07;71.00;100390.75;5092341;28;20024;-49
2023/02/03 06:44:21;;;;;;;17.98;9.00;;;;;;;3.95;70.33;100392.50;5074231;28;20028;-49
2023/02/03 06:46:49;;;;;;;23.40;9.95;;;;;;;3.68;70.66;100395.41;5092311;28;20036;-49
2023/02/03 06:49:16;;;;;;;28.55;9.70;;;;;;;3.37;70.47;100379.47;5091139;28;20109;-49
2023/02/03 06:51:42;;;;;;;16.17;8.20;;;;;;;3.19;71.17;100386.81;5090966;28;20016;-49
2023/02/03 06:54:09;;;;;;;18.60;10.45;;;;;;;3.16;71.63;100399.22;5092287;28;20032;-49
2023/02/03 06:56:35;;;;;;;30.25;13.85;;;;;;;3.10;71.46;100389.25;5092055;28;20584;-49
2023/02/03 06:59:00;;;;;;;21.45;9.57;;;;;;;3.04;71.46;100389.69;5092047;28;20107;-47
2023/02/03 07:01:26;;;;;;;19.95;10.15;;;;;;;3.02;72.17;100383.78;5092163;28;20069;-47
2023/02/03 07:03:52;;;;;;;20.70;9.02;;;;;;;3.09;72.50;100380.63;5090709;28;20024;-47
2023/02/03 07:06:17;;;;;;;21.83;9.35;;;;;;;3.16;71.92;100388.84;5090716;28;20036;-47
2023/02/03 07:08:43;;;;;;;20.70;9.65;;;;;;;3.05;71.53;100399.97;5090691;28;20492;-47
2023/02/03 07:11:09;;;;;;;23.20;8.77;;;;;;;2.97;71.63;100410.03;5091998;28;20065;-47
2023/02/03 07:13:35;;;;;;;21.23;8.85;;;;;;;3.09;71.92;100413.53;5092026;28;20425;-47
2023/02/03 07:16:00;;;;;;;23.52;8.90;;;;;;;3.40;71.94;100413.00;5091944;28;20020;-47
2023/02/03 07:18:26;;;;;;;22.27;8.05;;;;;;;3.48;71.39;100424.56;5091985;28;20031;-47
2023/02/03 07:20:52;;;;;;;16.95;7.35;;;;;;;3.53;71.02;100428.50;5091843;28;20032;-47
2023/02/03 07:23:18;;;;;;;21.45;9.73;;;;;;;3.56;70.55;100427.44;5091580;28;20059;-47
2023/02/03 07:25:44;;;;;;;18.17;8.25;;;;;;;3.59;70.91;100437.59;5090502;28;20166;-47
2023/02/03 07:28:10;;;;;;;21.77;8.52;;;;;;;4.05;70.56;100436.00;5090539;28;20111;-47
2023/02/03 07:30:36;;;;;;;28.55;8.45;;;;;;;4.53;69.43;100439.22;5091812;28;20028;-47
2023/02/03 07:33:01;;;;;;;25.85;8.80;;;;;;;5.24;66.57;100432.88;5090444;28;20031;-47
2023/02/03 07:35:27;;;;;;;40.10;10.20;;;;;;;5.96;63.83;100433.06;5073635;28;20028;-47
2023/02/03 07:37:53;;;;;;;15.50;8.40;;;;;;;6.22;61.37;100431.84;5090430;28;20060;-47
2023/02/03 07:40:19;;;;;;;27.40;8.88;;;;;;;6.05;60.94;100434.06;5091702;28;20047;-47
2023/02/03 07:42:47;;;;;;;45.85;10.88;;;;;;;5.67;60.86;100438.03;5090270;28;20024;-47
2023/02/03 07:45:15;;;;;;;24.58;8.75;;;;;;;5.48;62.29;100440.50;5091663;28;20024;-47
2023/02/03 07:47:42;;;;;;;25.92;9.10;;;;;;;5.80;62.81;100438.69;5090319;28;20447;-48
2023/02/03 07:50:09;;;;;;;20.38;9.00;;;;;;;6.42;61.51;100438.81;5090300;28;20397;-47
2023/02/03 07:52:34;;;;;;;16.10;9.38;;;;;;;7.35;59.93;100427.25;5090288;28;20494;-47
2023/02/03 07:55:00;;;;;;;21.27;12.00;;;;;;;8.05;56.35;100429.72;5090234;28;20020;-48
2023/02/03 07:57:26;;;;;;;21.77;9.88;;;;;;;8.74;53.91;100427.72;5090295;28;20486;-47
2023/02/03 07:59:51;;;;;;;31.65;9.30;;;;;;;9.48;52.84;100425.88;5091432;28;20021;-48
2023/02/03 08:02:17;;;;;;;20.50;9.15;;;;;;;10.02;52.04;100423.16;5091448;28;20060;-49
2023/02/03 08:04:42;;;;;;;22.92;9.43;;;;;;;10.43;50.44;100415.59;5091790;28;20017;-49
2023/02/03 08:07:08;;;;;;;23.17;10.05;;;;;;;10.81;48.92;100409.00;5090164;28;20382;-50
2023/02/03 08:09:34;;;;;;;21.13;10.20;;;;;;;11.23;46.64;100405.50;5091472;28;20063;-50
2023/02/03 08:11:59;;;;;;;26.27;11.38;;;;;;;11.25;46.06;100402.69;5095239;28;20023;-49
2023/02/03 08:14:25;;;;;;;29.63;10.80;;;;;;;11.39;45.95;100416.03;5093881;28;20512;-49
2023/02/03 08:16:50;;;;;;;21.48;9.27;;;;;;;10.87;46.48;100423.31;5093826;28;20508;-49
2023/02/03 08:19:16;;;;;;;20.02;9.25;;;;;;;10.37;48.02;100430.16;5093949;28;20028;-47
2023/02/03 08:21:42;;;;;;;16.17;8.55;;;;;;;10.57;48.89;100426.31;5095099;28;20413;-48
2023/02/03 08:24:07;;;;;;;23.42;9.40;;;;;;;10.90;48.11;100429.06;5093408;28;20520;-48
2023/02/03 08:26:35;;;;;;;22.58;9.60;;;;;;;11.26;48.04;100441.97;5094978;28;20020;-48
2023/02/03 08:29:02;;;;;;;19.15;8.77;;;;;;;11.56;47.27;100440.53;5093647;28;20028;-48
2023/02/03 08:31:28;;;;;;;22.50;9.02;;;;;;;11.80;47.01;100446.78;5094857;28;20576;-47
2023/02/03 08:33:53;;;;;;;20.58;9.27;;;;;;;12.22;46.05;100444.97;5094876;28;20060;-48
2023/02/03 08:36:19;;;;;;;21.73;9.40;;;;;;;12.64;43.73;100449.97;5093829;28;20028;-48
2023/02/03 08:38:45;;;;;;;19.98;8.82;;;;;;;13.17;42.88;100439.66;5094767;28;20024;-47
2023/02/03 08:41:13;;;;;;;30.15;10.02;;;;;;;13.62;42.37;100445.97;5093557;28;20517;-48
2023/02/03 08:43:39;;;;;;;26.17;10.38;;;;;;;14.14;41.46;100450.47;5093293;28;20028;-48
2023/02/03 08:46:07;;;;;;;26.27;9.35;;;;;;;14.83;40.42;100444.16;5094690;28;20028;-47
2023/02/03 08:48:33;;;;;;;21.75;10.10;;;;;;;15.60;38.61;100445.38;5076691;28;20024;-47
2023/02/03 08:50:59;;;;;;;24.10;9.57;;;;;;;15.92;37.11;100440.59;5093311;28;20016;-48
2023/02/03 08:53:25;;;;;;;24.67;10.10;;;;;;;16.66;36.37;100447.97;5094564;28;20081;-48
2023/02/03 08:55:51;;;;;;;28.20;10.13;;;;;;;17.48;35.57;100448.03;5094443;28;20097;-47
2023/02/03 08:58:17;;;;;;;21.95;9.93;;;;;;;18.22;34.36;100444.41;5094403;28;20101;-47
2023/02/03 09:00:43;;;;;;;29.85;11.07;;;;;;;18.70;33.32;100444.06;5094326;28;20020;-48
2023/02/03 09:03:08;;;;;;;25.67;11.15;;;;;;;19.15;32.29;100445.94;5092912;28;20028;-48
2023/02/03 09:05:34;;;;;;;25.25;9.70;;;;;;;19.05;31.79;100437.59;5092917;28;20085;-45
2023/02/03 09:08:00;;;;;;;23.67;9.63;;;;;;;19.23;31.67;100437.69;5094237;28;20431;-46
2023/02/03 09:10:26;;;;;;;20.55;9.73;;;;;;;19.76;31.38;100441.88;5094178;28;20432;-45
2023/02/03 09:12:51;;;;;;;24.63;9.32;;;;;;;20.02;30.38;100438.16;5075926;28;20508;-46
2023/02/03 09:15:17;;;;;;;20.67;8.32;;;;;;;19.88;29.91;100437.47;5093066;28;20055;-45
2023/02/03 09:17:42;;;;;;;24.02;9.40;;;;;;;19.91;30.22;100445.00;5093975;28;20056;-46
2023/02/03 09:20:09;;;;;;;21.25;8.63;;;;;;;20.05;30.42;100445.72;5093884;28;20069;-45
2023/02/03 09:22:34;;;;;;;22.10;10.07;;;;;;;20.37;29.21;100447.47;5092280;28;20044;-45
2023/02/03 09:25:00;;;;;;;27.10;9.23;;;;;;;20.50;29.99;100449.97;5092566;28;20047;-45
2023/02/03 09:27:25;;;;;;;22.35;9.35;;;;;;;21.17;29.81;100447.34;5092578;28;20024;-46
2023/02/03 09:29:51;;;;;;;24.25;9.73;;;;;;;21.85;28.48;100458.66;5093831;28;20024;-45
2023/02/03 09:32:17;;;;;;;33.53;9.73;;;;;;;22.25;28.20;100458.00;5093713;28;20020;-45
2023/02/03 09:34:42;;;;;;;29.42;9.68;;;;;;;22.62;27.55;100460.41;5093685;28;20024;-46
2023/02/03 09:37:08;;;;;;;28.63;8.77;;;;;;;23.06;26.92;100460.75;5092337;28;20020;-45
2023/02/03 09:39:34;;;;;;;36.35;9.45;;;;;;;23.35;26.18;100466.91;5093825;28;20478;-45
2023/02/03 09:42:25;;;;;;;23.77;8.48;;;;;;;23.66;26.65;100462.91;5093481;28;20510;-46
2023/02/03 09:44:59;;;;;;;26.98;8.65;;;;;;;23.98;26.27;100456.97;5093550;28;20039;-47
2023/02/03 09:47:31;;;;;;;28.85;12.68;;;;;;;24.21;25.62;100455.16;5092219;28;20031;-47
2023/02/03 09:50:00;;;;;;;157.00;140.68;;;;;;;24.01;25.33;100451.13;5093473;28;20032;-47
2023/02/03 09:52:32;;;;;;;198.65;177.15;;;;;;;23.90;26.00;100441.28;5093320;28;20489;-47
2023/02/03 09:55:04;;;;;;;445.88;351.08;;;;;;;24.14;26.01;100444.59;5093348;28;20102;-47
2023/02/03 09:57:35;;;;;;;1132.25;617.90;;;;;;;24.39;25.71;100456.72;5093258;28;20020;-47
2023/02/03 10:00:15;;;;;;;1478.47;688.83;;;;;;;24.37;25.62;100459.66;5091893;28;20043;-47
2023/02/03 10:02:55;;;;;;;1151.00;601.45;;;;;;;24.18;25.53;100456.44;5092044;28;20476;-47
2023/02/03 10:06:00;;;;;;;1999.90;805.33;;;;;;;23.90;26.07;100446.66;5093132;28;20086;-47
2023/02/03 10:08:51;;;;;;;485.35;224.10;;;;;;;23.65;26.38;100455.09;5091965;28;20055;-47
2023/02/03 10:11:27;;;;;;;395.55;153.10;;;;;;;23.25;26.41;100447.97;5091655;28;20041;-46
2023/02/03 10:14:16;;;;;;;264.52;97.82;;;;;;;23.47;26.56;100443.53;5091699;28;20032;-47
2023/02/03 10:17:19;;;;;;;138.52;53.38;;;;;;;23.77;26.19;100444.28;5092813;28;20028;-47
2023/02/03 10:19:53;;;;;;;125.95;42.13;;;;;;;24.63;25.04;100444.72;5092593;28;20025;-47
2023/02/03 10:22:24;;;;;;;91.97;34.78;;;;;;;24.91;24.74;100442.88;5092540;28;20607;-47
2023/02/03 10:25:04;;;;;;;84.65;31.67;;;;;;;25.03;24.90;100448.94;5092772;28;20032;-47
2023/02/03 10:27:32;;;;;;;97.25;31.10;;;;;;;24.97;25.01;100449.13;5092735;28;20020;-47
2023/02/03 10:30:25;;;;;;;60.53;17.27;;;;;;;25.07;24.24;100442.00;5092634;28;20034;-47
2023/02/03 10:32:54;;;;;;;33.63;11.18;;;;;;;25.44;23.43;100443.16;5090810;28;20027;-48
2023/02/03 10:35:40;;;;;;;24.00;9.65;;;;;;;25.65;22.72;100436.06;5092526;28;20028;-47
2023/02/03 10:38:14;;;;;;;21.08;7.28;;;;;;;25.81;21.95;100445.88;5092609;28;20024;-47
2023/02/03 10:40:40;;;;;;;25.48;8.48;;;;;;;25.94;22.92;100443.81;5092509;28;20088;-47
2023/02/03 10:45:52;;;;;;;33.38;7.45;;;;;;;26.44;22.00;100431.72;5092676;28;20073;-47
2023/02/03 10:48:18;;;;;;;11.98;4.85;;;;;;;26.36;21.76;100435.75;5092400;28;20045;-47
2023/02/03 10:50:48;;;;;;;14.77;4.72;;;;;;;26.09;21.46;100433.97;5092280;28;20494;-47
2023/02/03 10:53:17;;;;;;;12.00;4.10;;;;;;;25.71;21.62;100425.09;5092359;28;20016;-47
2023/02/03 10:55:44;;;;;;;11.20;4.22;;;;;;;25.51;21.21;100417.69;5090883;28;20068;-47
2023/02/03 10:58:22;;;;;;;12.55;4.95;;;;;;;25.34;21.80;100417.00;5092442;28;20032;-46
2023/02/03 11:01:03;;;;;;;12.68;4.18;;;;;;;25.15;21.98;100416.53;5092450;28;20036;-47
2023/02/03 11:03:29;;;;;;;14.38;3.70;;;;;;;24.84;22.36;100423.47;5092071;28;20024;-47
2023/02/03 11:06:08;;;;;;;16.60;4.43;;;;;;;24.02;23.26;100422.41;5090770;28;20035;-47
2023/02/03 11:08:35;;;;;;;15.63;3.67;;;;;;;23.32;23.87;100432.53;5092013;28;20028;-47
2023/02/03 11:11:03;;;;;;;12.68;4.18;;;;;;;22.86;24.90;100421.81;5090679;28;20025;-46
2023/02/03 11:13:29;;;;;;;16.95;3.85;;;;;;;22.81;25.40;100421.69;5091910;28;20024;-46
2023/02/03 11:15:55;;;;;;;14.52;4.32;;;;;;;23.15;25.19;100412.97;5090640;28;20028;-46
2023/02/03 11:18:57;;;;;;;17.15;4.13;;;;;;;23.30;24.42;100406.03;5091965;28;20031;-46
2023/02/03 11:21:47;;;;;;;17.33;3.50;;;;;;;22.92;24.67;100409.34;5086192;28;20036;-46
2023/02/03 11:24:15;;;;;;;11.15;2.28;;;;;;;22.40;24.62;100410.19;5091591;28;20081;-46
2023/02/03 11:27:05;;;;;;;16.35;2.78;;;;;;;22.41;25.31;100411.78;5091830;28;20055;-46
2023/02/03 11:29:34;;;;;;;9.60;2.58;;;;;;;22.35;24.76;100407.41;5091834;28;20028;-46
2023/02/03 11:32:22;;;;;;;9.95;2.28;;;;;;;22.38;25.03;100406.94;5092022;28;20027;-46
2023/02/03 11:34:56;;;;;;;10.18;2.33;;;;;;;22.29;24.97;100408.34;5091882;28;20119;-46
2023/02/03 11:37:40;;;;;;;9.93;2.85;;;;;;;22.42;25.21;100405.41;5091756;28;20024;-46